Time;durP1;ratioP1;P1;durP2;ratioP2;P2;SDS_P1;SDS_P2;PMS_P1;PMS_P2;Temp;Humidity;BMP_temperature;BMP_pressure;BME280_temperature;BME280_humidity;BME280_pressure;Samples;Min_cycle;Max_cycle;Signal;HPM_P1;HPM_P2
2022/08/19 00:03:14;;;;;;;14.00;9.65;;;;;;;14.48;100.00;101374.50;10379160;28;20042;-80
2022/08/19 00:08:15;;;;;;;13.50;10.32;;;;;;;14.43;100.00;101368.94;10361530;28;20044;-80
2022/08/19 00:13:15;;;;;;;12.85;9.70;;;;;;;14.29;100.00;101363.84;10361284;28;20038;-77
2022/08/19 00:18:16;;;;;;;16.80;11.80;;;;;;;14.29;100.00;101368.56;10394378;28;20033;-80
2022/08/19 00:23:16;;;;;;;18.02;12.07;;;;;;;13.77;100.00;101275.22;10385173;28;20026;-80
2022/08/19 00:28:17;;;;;;;21.27;14.70;;;;;;;14.27;100.00;101366.06;10401784;28;20034;-79
2022/08/19 00:33:18;;;;;;;22.30;15.85;;;;;;;14.22;100.00;101357.72;10418277;28;20025;-81
2022/08/19 00:38:22;;;;;;;20.25;16.15;;;;;;;14.11;100.00;101342.13;10384246;28;20489;-81
2022/08/19 00:43:23;;;;;;;20.27;15.43;;;;;;;14.04;100.00;101328.53;10383696;28;20097;-80
2022/08/19 00:48:24;;;;;;;20.75;16.05;;;;;;;14.03;100.00;101337.91;10415992;28;20438;-80
2022/08/19 00:53:27;;;;;;;21.83;15.57;;;;;;;13.97;100.00;101332.63;10383439;28;20414;-80
2022/08/19 00:58:30;;;;;;;21.55;14.98;;;;;;;13.96;100.00;101342.03;10400891;28;20053;-80
2022/08/19 01:03:30;;;;;;;18.20;12.88;;;;;;;14.00;100.00;101357.00;10415891;28;20045;-81
2022/08/19 01:08:31;;;;;;;25.25;13.98;;;;;;;13.87;100.00;101333.38;10400084;28;20038;-81
2022/08/19 01:13:33;;;;;;;18.98;12.57;;;;;;;13.89;100.00;101353.31;10399710;28;20053;-81
2022/08/19 01:18:37;;;;;;;20.40;12.32;;;;;;;13.90;100.00;101355.00;10400052;28;20030;-80
2022/08/19 01:23:43;;;;;;;18.98;12.48;;;;;;;13.75;100.00;101338.28;10428641;28;20048;-81
2022/08/19 01:28:44;;;;;;;19.52;11.73;;;;;;;13.71;100.00;101336.03;10382623;28;20037;-81
2022/08/19 01:33:46;;;;;;;15.38;11.60;;;;;;;13.35;100.00;101282.31;10415293;28;20120;-80
2022/08/19 01:38:48;;;;;;;17.65;12.30;;;;;;;13.62;100.00;101332.09;10398570;28;20044;-81
2022/08/19 01:43:51;;;;;;;18.50;11.27;;;;;;;13.53;100.00;101334.47;10398395;28;20067;-80
2022/08/19 01:48:51;;;;;;;18.48;11.98;;;;;;;13.52;100.00;101338.34;10381880;28;20037;-81
2022/08/19 01:53:52;;;;;;;21.05;12.40;;;;;;;13.55;100.00;101344.47;10414805;28;20037;-81
2022/08/19 01:58:58;;;;;;;19.80;11.70;;;;;;;13.46;100.00;101349.66;10398042;28;20398;-81
2022/08/19 02:04:00;;;;;;;18.27;11.67;;;;;;;13.48;100.00;101353.81;10397798;28;20557;-80
2022/08/19 02:09:01;;;;;;;19.10;11.90;;;;;;;13.43;100.00;101345.44;10414337;28;20072;-81
2022/08/19 02:14:03;;;;;;;18.98;12.02;;;;;;;13.46;100.00;101333.88;10386119;28;20034;-82
2022/08/19 02:19:04;;;;;;;16.75;11.45;;;;;;;13.34;100.00;101313.84;10413002;28;20046;-81
2022/08/19 02:24:04;;;;;;;17.48;12.43;;;;;;;13.41;100.00;101349.59;10380950;28;21126;-81
2022/08/19 02:29:05;;;;;;;20.15;12.18;;;;;;;13.24;100.00;101320.06;10397788;28;20033;-81
2022/08/19 02:34:05;;;;;;;18.90;12.32;;;;;;;13.37;100.00;101343.72;10414616;28;20061;-83
2022/08/19 02:39:06;;;;;;;17.85;12.38;;;;;;;13.35;100.00;101345.91;10394233;28;20147;-82
2022/08/19 02:44:06;;;;;;;19.05;12.23;;;;;;;13.34;100.00;101347.03;10396165;28;20052;-82
2022/08/19 02:49:07;;;;;;;20.10;12.15;;;;;;;13.28;100.00;101332.28;10413653;28;20073;-80
2022/08/19 02:54:08;;;;;;;24.55;12.82;;;;;;;13.33;100.00;101350.88;10397506;28;21546;-82
2022/08/19 02:59:09;;;;;;;22.42;12.55;;;;;;;13.33;100.00;101339.81;10396244;28;20030;-81
2022/08/19 03:04:14;;;;;;;24.85;14.00;;;;;;;13.25;100.00;101327.28;10361165;28;20085;-82
2022/08/19 03:09:14;;;;;;;28.90;13.50;;;;;;;13.23;100.00;101323.94;10352627;28;20041;-81
2022/08/19 03:14:15;;;;;;;20.48;11.75;;;;;;;13.25;100.00;101326.44;10371332;28;20045;-82
2022/08/19 03:19:16;;;;;;;22.92;12.85;;;;;;;13.20;100.00;101329.16;10355372;28;20076;-82
2022/08/19 03:24:18;;;;;;;25.48;13.05;;;;;;;13.12;100.00;101320.25;10371963;28;20425;-82
2022/08/19 03:29:19;;;;;;;25.48;13.10;;;;;;;12.81;100.00;101268.50;10359066;28;20058;-83
2022/08/19 03:34:22;;;;;;;27.77;14.20;;;;;;;13.05;100.00;101303.03;10377548;28;20034;-82
2022/08/19 03:39:23;;;;;;;30.02;14.13;;;;;;;13.16;100.00;101333.53;10354765;28;20038;-83
2022/08/19 03:44:24;;;;;;;27.65;13.93;;;;;;;13.03;100.00;101319.03;10339238;28;20433;-82
2022/08/19 03:49:27;;;;;;;27.35;13.77;;;;;;;13.07;100.00;101319.34;10355208;28;20049;-83
2022/08/19 03:54:28;;;;;;;28.25;14.15;;;;;;;13.12;100.00;101341.50;10354800;28;20044;-83
2022/08/19 03:59:31;;;;;;;26.08;13.82;;;;;;;12.97;100.00;101320.06;10369365;28;20038;-82
2022/08/19 04:04:31;;;;;;;26.05;13.73;;;;;;;13.05;100.00;101344.50;10340242;28;20122;-83
2022/08/19 04:09:33;;;;;;;26.50;14.18;;;;;;;13.04;100.00;101353.03;10313932;28;20522;-83
2022/08/19 04:14:34;;;;;;;30.50;15.10;;;;;;;12.91;100.00;101318.34;10353339;28;20034;-84
2022/08/19 04:19:35;;;;;;;34.55;15.40;;;;;;;13.04;100.00;101330.91;10322642;28;20057;-80
2022/08/19 04:24:35;;;;;;;36.08;17.45;;;;;;;13.16;100.00;101330.78;10360295;28;20060;-84
2022/08/19 04:29:39;;;;;;;28.27;14.13;;;;;;;13.30;100.00;101329.28;10337750;28;20548;-85
2022/08/19 04:34:39;;;;;;;33.97;15.65;;;;;;;13.35;100.00;101332.09;10358881;28;20042;-84
2022/08/19 04:44:59;;;;;;;34.15;15.63;;;;;;;13.29;100.00;101309.13;10322617;28;20088;-84
2022/08/19 04:50:00;;;;;;;40.28;18.33;;;;;;;13.37;100.00;101313.31;10304907;28;20073;-82
2022/08/19 04:55:00;;;;;;;35.00;16.88;;;;;;;13.43;100.00;101311.44;10320962;28;20038;-83
2022/08/19 05:00:01;;;;;;;35.25;19.90;;;;;;;13.59;100.00;101320.72;10351571;28;20031;-83
2022/08/19 05:05:02;;;;;;;40.45;22.55;;;;;;;13.51;100.00;101314.53;10358071;28;20038;-84
2022/08/19 05:10:04;;;;;;;43.70;19.40;;;;;;;13.57;100.00;101312.66;10376740;28;20042;-85
2022/08/19 05:15:05;;;;;;;37.33;18.52;;;;;;;13.62;100.00;101314.63;10343275;28;20136;-84
2022/08/19 05:25:25;;;;;;;35.55;18.17;;;;;;;13.78;100.00;101321.97;10375596;28;20137;-85
2022/08/19 05:30:26;;;;;;;39.03;18.45;;;;;;;13.71;100.00;101313.06;10359266;28;20041;-85
2022/08/19 05:35:27;;;;;;;34.78;17.85;;;;;;;13.82;100.00;101312.03;10329616;28;20038;-85
2022/08/19 05:40:28;;;;;;;30.88;16.45;;;;;;;13.85;100.00;101319.81;10304024;28;20117;-84
2022/08/19 05:45:29;;;;;;;31.55;14.98;;;;;;;13.81;100.00;101302.06;10303385;28;20127;-87
2022/08/19 05:50:30;;;;;;;28.02;14.95;;;;;;;14.01;100.00;101330.97;10321033;28;20034;-85
2022/08/19 05:55:31;;;;;;;23.23;13.55;;;;;;;14.10;100.00;101318.31;10336822;28;20081;-84
2022/08/19 06:00:32;;;;;;;19.90;13.55;;;;;;;14.01;100.00;101278.38;10338773;28;20076;-80
2022/08/19 06:05:32;;;;;;;22.23;14.30;;;;;;;14.50;100.00;101305.78;10359282;28;20042;-82
2022/08/19 06:10:33;;;;;;;27.08;15.68;;;;;;;14.61;100.00;101268.72;10343355;28;20113;-81
2022/08/19 06:15:33;;;;;;;24.80;16.27;;;;;;;15.21;100.00;101326.56;10337683;28;20045;-83
2022/08/19 06:20:34;;;;;;;24.52;14.30;;;;;;;15.60;100.00;101307.44;10332927;28;20050;-81
2022/08/19 06:25:35;;;;;;;21.10;13.18;;;;;;;16.07;100.00;101308.28;10349132;28;20410;-82
2022/08/19 06:30:36;;;;;;;20.00;13.02;;;;;;;16.28;100.00;101290.44;10348602;28;20030;-82
2022/08/19 06:35:40;;;;;;;17.58;12.20;;;;;;;16.64;100.00;101295.03;10332621;28;20041;-82
2022/08/19 06:40:41;;;;;;;18.35;11.38;;;;;;;17.00;100.00;101295.72;10392182;28;20493;-80
2022/08/19 06:45:42;;;;;;;16.63;10.55;;;;;;;17.24;100.00;101268.00;10397115;28;20057;-85
2022/08/19 06:50:42;;;;;;;15.73;11.20;;;;;;;17.54;100.00;101285.56;10415313;28;20040;-80
2022/08/19 06:55:43;;;;;;;15.82;11.68;;;;;;;17.64;100.00;101271.56;10380758;28;20042;-82
2022/08/19 07:00:43;;;;;;;14.32;11.13;;;;;;;17.91;100.00;101292.53;10346387;28;20049;-82
2022/08/19 07:05:44;;;;;;;13.25;10.90;;;;;;;18.00;100.00;101296.31;10351559;28;20053;-77
2022/08/19 07:10:44;;;;;;;14.95;11.85;;;;;;;18.02;100.00;101302.41;10351360;28;20041;-80
2022/08/19 07:15:46;;;;;;;16.70;10.80;;;;;;;18.14;100.00;101300.06;10335863;28;20042;-80
2022/08/19 07:20:47;;;;;;;15.38;11.70;;;;;;;18.32;100.00;101306.84;10330311;28;20042;-80
2022/08/19 07:25:48;;;;;;;15.02;10.98;;;;;;;18.44;100.00;101302.78;10321048;28;20233;-79
2022/08/19 07:30:49;;;;;;;14.35;11.80;;;;;;;18.44;100.00;101274.91;10344493;28;20045;-79
2022/08/19 07:35:50;;;;;;;17.95;12.75;;;;;;;18.74;100.00;101282.06;10354535;28;20113;-81
2022/08/19 07:40:51;;;;;;;22.58;13.23;;;;;;;18.87;100.00;101300.91;10321496;28;20057;-80
2022/08/19 07:45:55;;;;;;;18.58;13.32;;;;;;;18.84;100.00;101276.38;10353366;28;20089;-80
2022/08/19 07:50:59;;;;;;;15.70;12.65;;;;;;;19.17;100.00;101309.97;10373716;28;20042;-79
2022/08/19 07:56:03;;;;;;;17.95;13.40;;;;;;;19.36;100.00;101287.59;10359728;28;20101;-79
2022/08/19 08:01:04;;;;;;;14.98;11.73;;;;;;;19.78;100.00;101299.78;10403105;28;20041;-80
2022/08/19 08:11:23;;;;;;;16.77;11.50;;;;;;;20.29;100.00;101303.59;10433628;28;20048;-81
2022/08/19 08:16:30;;;;;;;15.18;11.73;;;;;;;20.53;100.00;101307.03;10390201;28;20072;-80
2022/08/19 08:21:32;;;;;;;15.77;11.60;;;;;;;20.73;100.00;101305.81;10378310;28;20045;-79
2022/08/19 08:26:32;;;;;;;14.93;11.15;;;;;;;21.17;100.00;101307.06;10360106;28;20033;-79
2022/08/19 08:31:33;;;;;;;11.85;9.55;;;;;;;21.61;100.00;101306.59;10343585;28;20046;-78
2022/08/19 08:36:44;;;;;;;15.10;10.48;;;;;;;21.77;100.00;101321.88;10338808;28;20102;-78
2022/08/19 08:42:12;;;;;;;11.77;9.73;;;;;;;22.04;100.00;101334.91;10342210;28;20109;-78
2022/08/19 08:47:14;;;;;;;14.55;10.02;;;;;;;22.11;100.00;101326.03;10360618;28;20079;-78
2022/08/19 08:52:25;;;;;;;10.15;8.70;;;;;;;22.31;100.00;101319.09;10376914;28;20029;-77
2022/08/19 08:57:39;;;;;;;12.50;8.52;;;;;;;22.55;100.00;101327.06;10361528;28;20034;-79
2022/08/19 09:02:40;;;;;;;11.30;7.82;;;;;;;22.97;100.00;101322.75;10379395;28;20058;-78
2022/08/19 09:07:43;;;;;;;11.23;7.35;;;;;;;23.30;100.00;101315.88;10399281;28;20041;-80
2022/08/19 09:12:59;;;;;;;13.50;7.47;;;;;;;23.46;100.00;101327.41;10416139;28;20060;-79
2022/08/19 09:18:03;;;;;;;10.20;8.05;;;;;;;23.54;100.00;101323.78;10373688;28;20041;-77
2022/08/19 09:23:04;;;;;;;9.95;7.68;;;;;;;23.71;100.00;101340.66;10367606;28;20049;-77
2022/08/19 09:28:05;;;;;;;9.02;6.80;;;;;;;23.74;100.00;101313.84;10343066;28;20057;-80
2022/08/19 09:33:06;;;;;;;8.13;5.68;;;;;;;23.88;100.00;101303.28;10358470;28;20049;-80
2022/08/19 09:38:06;;;;;;;7.50;4.88;;;;;;;24.14;100.00;101299.53;10357885;28;20125;-79
2022/08/19 09:43:07;;;;;;;7.47;5.18;;;;;;;24.48;100.00;101314.66;10357474;28;20046;-80
2022/08/19 09:48:08;;;;;;;8.45;5.97;;;;;;;24.46;100.00;101309.34;10376239;28;20132;-80
2022/08/19 09:53:08;;;;;;;9.55;5.03;;;;;;;24.49;100.00;101305.03;10343845;28;20038;-79
2022/08/19 09:58:09;;;;;;;8.77;5.03;;;;;;;24.69;100.00;101303.47;10377007;28;20042;-79
2022/08/19 10:03:11;;;;;;;7.78;5.93;;;;;;;24.94;100.00;101294.00;10358594;28;20033;-80
2022/08/19 10:08:11;;;;;;;6.68;5.00;;;;;;;24.90;100.00;101255.63;10373680;28;20105;-79
2022/08/19 10:13:13;;;;;;;8.90;4.97;;;;;;;25.54;100.00;101286.25;10339736;28;20049;-79
2022/08/19 10:18:14;;;;;;;4.55;4.10;;;;;;;25.67;100.00;101289.94;10373439;28;20571;-77
2022/08/19 10:23:15;;;;;;;11.27;4.30;;;;;;;25.92;100.00;101284.41;10374481;28;20061;-77
2022/08/19 10:28:16;;;;;;;7.90;4.57;;;;;;;26.08;97.42;101273.25;10395674;28;20090;-79
2022/08/19 10:33:16;;;;;;;5.10;3.50;;;;;;;26.19;95.05;101263.19;10414889;28;20044;-81
2022/08/19 10:38:17;;;;;;;5.20;2.35;;;;;;;26.45;91.54;101250.72;10407895;28;20030;-83
2022/08/19 10:43:17;;;;;;;2.47;2.28;;;;;;;26.74;86.32;101244.81;10372616;28;20049;-79
2022/08/19 10:48:19;;;;;;;2.50;2.10;;;;;;;26.76;83.90;101250.09;10372854;28;20034;-78
2022/08/19 10:53:25;;;;;;;3.35;2.25;;;;;;;26.90;82.07;101246.91;10375551;28;20037;-82
2022/08/19 10:58:26;;;;;;;2.83;2.25;;;;;;;27.06;83.37;101239.31;10389146;28;20062;-79
2022/08/19 11:03:28;;;;;;;3.95;2.70;;;;;;;27.34;82.06;101244.19;10372155;28;20449;-78
2022/08/19 11:08:30;;;;;;;3.20;2.70;;;;;;;26.76;78.69;101245.28;10388211;28;20034;-78
2022/08/19 11:13:33;;;;;;;3.88;2.22;;;;;;;26.38;85.08;101265.41;10332547;28;20042;-78
2022/08/19 11:18:38;;;;;;;3.05;2.08;;;;;;;27.05;83.84;101254.63;10386347;28;20041;-78
2022/08/19 11:23:38;;;;;;;5.10;3.00;;;;;;;27.43;77.66;101235.53;10389248;28;20042;-88
2022/08/19 11:28:39;;;;;;;3.83;3.08;;;;;;;27.46;79.80;101246.16;10397831;28;20030;-88
2022/08/19 11:33:39;;;;;;;4.43;2.72;;;;;;;27.76;78.39;101244.56;10382392;28;20084;-75
2022/08/19 11:38:40;;;;;;;4.95;2.92;;;;;;;28.34;75.65;101226.22;10416366;28;20097;-77
2022/08/19 11:43:40;;;;;;;5.63;3.40;;;;;;;28.91;72.97;101206.91;10417171;28;20038;-76
2022/08/19 11:48:41;;;;;;;5.95;3.30;;;;;;;29.35;73.12;101223.63;10395099;28;20061;-76
2022/08/19 11:53:41;;;;;;;5.93;3.53;;;;;;;29.50;70.43;101214.22;10417971;28;20030;-84
2022/08/19 11:58:42;;;;;;;5.05;3.35;;;;;;;29.50;71.16;101208.56;10385304;28;20353;-81
2022/08/19 12:03:46;;;;;;;5.13;3.95;;;;;;;28.81;69.60;101213.97;10360889;28;20049;-71
2022/08/19 12:08:47;;;;;;;4.13;3.47;;;;;;;28.41;73.35;101188.78;10418519;28;20126;-81
2022/08/19 12:13:47;;;;;;;4.78;3.83;;;;;;;28.29;72.65;101230.16;10402812;28;20096;-81
2022/08/19 12:18:48;;;;;;;5.72;3.90;;;;;;;27.65;74.75;101236.97;10420421;28;20064;-81
2022/08/19 12:23:49;;;;;;;5.38;4.53;;;;;;;27.24;74.68;101217.25;10403209;28;20042;-73
2022/08/19 12:28:49;;;;;;;7.15;4.57;;;;;;;27.20;76.57;101235.25;10403563;28;20041;-81
2022/08/19 12:33:52;;;;;;;9.23;4.80;;;;;;;27.15;77.01;101231.50;10374896;28;20037;-82
2022/08/19 12:38:52;;;;;;;5.50;4.65;;;;;;;27.69;75.84;101201.13;10399522;28;20100;-86
2022/08/19 12:43:53;;;;;;;5.50;4.60;;;;;;;28.83;72.76;101210.78;10434749;28;20037;-83
2022/08/19 12:48:54;;;;;;;5.90;4.60;;;;;;;29.03;69.69;101215.28;10418704;28;20040;-81
2022/08/19 12:53:54;;;;;;;6.57;5.07;;;;;;;28.64;68.97;101198.22;10402059;28;20057;-82
2022/08/19 12:58:55;;;;;;;6.85;5.55;;;;;;;28.15;70.99;101204.31;10385733;28;20076;-83
2022/08/19 13:03:56;;;;;;;8.20;4.78;;;;;;;27.58;72.33;101207.31;10400918;28;20074;-82
2022/08/19 13:08:56;;;;;;;6.38;4.82;;;;;;;27.02;75.26;101220.59;10383576;28;20029;-82
2022/08/19 13:13:57;;;;;;;6.40;5.28;;;;;;;26.74;79.24;101222.22;10397422;28;20048;-81
2022/08/19 13:18:57;;;;;;;10.73;5.70;;;;;;;26.57;81.23;101228.97;10417036;28;20036;-82
2022/08/19 13:23:58;;;;;;;8.75;6.47;;;;;;;26.27;80.20;101225.53;10400178;28;20068;-80
2022/08/19 13:34:19;;;;;;;7.35;6.65;;;;;;;25.89;86.34;101245.59;10374685;28;20485;-81
2022/08/19 13:39:20;;;;;;;8.13;6.70;;;;;;;25.89;86.04;101237.97;10356854;28;20045;-80
2022/08/19 13:44:20;;;;;;;8.13;7.32;;;;;;;25.83;85.20;101193.41;10334174;28;20157;-78
2022/08/19 13:49:22;;;;;;;8.05;7.18;;;;;;;26.37;83.92;101229.88;10395257;28;20130;-80
2022/08/19 13:54:23;;;;;;;7.88;6.90;;;;;;;26.69;85.87;101225.31;10415130;28;20072;-79
2022/08/19 13:59:24;;;;;;;10.85;7.05;;;;;;;27.10;85.50;101205.50;10387433;28;20029;-79
2022/08/19 14:04:25;;;;;;;10.52;7.47;;;;;;;27.64;79.24;101202.22;10414420;28;20045;-78
2022/08/19 14:09:25;;;;;;;8.68;7.68;;;;;;;28.27;74.92;101184.41;10398863;28;20029;-81
2022/08/19 14:14:26;;;;;;;10.00;7.85;;;;;;;29.34;73.80;101179.47;10381624;28;20045;-80
2022/08/19 14:19:26;;;;;;;10.05;7.07;;;;;;;30.09;71.22;101160.94;10404737;28;20456;-79
2022/08/19 14:24:27;;;;;;;8.60;5.90;;;;;;;29.65;66.85;101143.56;10380752;28;20060;-78
2022/08/19 14:29:28;;;;;;;6.38;5.60;;;;;;;28.67;69.45;101168.34;10414341;28;20103;-78
2022/08/19 14:34:31;;;;;;;6.90;5.07;;;;;;;27.44;72.56;101184.28;10398088;28;20039;-78
2022/08/19 14:39:31;;;;;;;18.33;10.73;;;;;;;26.49;85.64;101223.41;10430387;28;20045;-77
2022/08/19 14:44:33;;;;;;;18.48;12.35;;;;;;;25.50;100.00;101236.56;10408619;28;20101;-73
2022/08/19 14:49:34;;;;;;;15.20;11.13;;;;;;;25.43;100.00;101237.13;10397271;28;20029;-79
2022/08/19 14:54:34;;;;;;;16.33;12.25;;;;;;;25.08;100.00;101217.69;10414220;28;20049;-72
2022/08/19 14:59:35;;;;;;;21.42;14.85;;;;;;;24.71;100.00;101234.38;10412124;28;20053;-66
2022/08/19 15:04:35;;;;;;;17.17;13.50;;;;;;;24.76;100.00;101236.16;10430216;28;20030;-67
2022/08/19 15:09:36;;;;;;;16.42;13.52;;;;;;;24.88;100.00;101239.06;10415702;28;20045;-68
2022/08/19 15:14:37;;;;;;;14.80;11.52;;;;;;;25.67;100.00;101221.44;10389901;28;20053;-71
2022/08/19 15:19:37;;;;;;;18.33;12.00;;;;;;;26.00;100.00;101227.06;10335258;28;20034;-70
2022/08/19 15:24:38;;;;;;;17.60;11.00;;;;;;;26.35;100.00;101237.88;10332274;28;20500;-70
2022/08/19 15:29:39;;;;;;;16.58;10.65;;;;;;;25.83;100.00;101250.63;10315338;28;20049;-72
2022/08/19 15:34:39;;;;;;;13.15;10.73;;;;;;;25.63;100.00;101257.16;10348071;28;20078;-76
2022/08/19 15:39:40;;;;;;;13.75;11.20;;;;;;;24.80;100.00;101213.78;10363581;28;20083;-75
2022/08/19 15:44:40;;;;;;;15.68;11.52;;;;;;;24.32;100.00;101222.34;10414802;28;20064;-72
2022/08/19 15:49:41;;;;;;;19.70;11.85;;;;;;;24.19;100.00;101254.38;10396761;28;20102;-66
2022/08/19 15:54:41;;;;;;;15.38;11.18;;;;;;;24.05;100.00;101273.44;10413434;28;20075;-72
2022/08/19 16:10:20;;;;;;;19.25;13.73;;;;;;;23.35;100.00;101267.94;10414432;28;20044;-71
2022/08/19 16:15:21;;;;;;;19.30;13.70;;;;;;;23.11;100.00;101244.00;10403718;28;20053;-70
2022/08/19 16:20:21;;;;;;;17.83;13.75;;;;;;;23.29;100.00;101280.50;10421769;28;20437;-74
2022/08/19 16:25:26;;;;;;;14.93;11.70;;;;;;;23.31;100.00;101279.00;10436584;28;20080;-75
2022/08/19 16:30:26;;;;;;;14.32;10.48;;;;;;;23.29;100.00;101300.97;10418342;28;20036;-75
2022/08/19 16:35:27;;;;;;;20.63;11.82;;;;;;;23.22;100.00;101308.28;10420310;28;20056;-75
2022/08/19 16:40:27;;;;;;;17.38;11.50;;;;;;;23.06;100.00;101300.31;10420237;28;20091;-72
2022/08/19 16:45:28;;;;;;;19.98;10.80;;;;;;;23.03;100.00;101289.75;10418831;28;20514;-76
2022/08/19 16:50:28;;;;;;;20.95;9.82;;;;;;;23.11;100.00;101299.31;10419087;28;20030;-76
2022/08/19 16:55:29;;;;;;;14.65;11.68;;;;;;;23.06;100.00;101307.91;10434903;28;20030;-77
2022/08/19 17:00:30;;;;;;;16.92;12.07;;;;;;;23.00;100.00;101307.22;10417028;28;20080;-80
2022/08/19 17:05:30;;;;;;;15.13;11.85;;;;;;;23.02;100.00;101310.56;10418168;28;20041;-76
2022/08/19 17:10:31;;;;;;;14.23;11.38;;;;;;;23.05;100.00;101304.28;10418021;28;20120;-76
2022/08/19 17:15:31;;;;;;;13.57;9.57;;;;;;;23.10;100.00;101312.53;10418257;28;20068;-75
2022/08/19 17:20:32;;;;;;;11.30;9.55;;;;;;;23.13;100.00;101300.66;10322652;28;20045;-76
2022/08/19 17:25:32;;;;;;;14.73;11.75;;;;;;;23.19;100.00;101303.28;10349626;28;20098;-76
2022/08/19 17:30:33;;;;;;;19.63;12.38;;;;;;;23.13;100.00;101306.28;10350840;28;20039;-75
2022/08/19 17:35:33;;;;;;;19.13;12.65;;;;;;;23.10;100.00;101304.13;10335898;28;20524;-76
2022/08/19 17:40:34;;;;;;;18.20;12.30;;;;;;;23.13;100.00;101308.25;10334039;28;20047;-76
2022/08/19 17:45:35;;;;;;;14.90;11.90;;;;;;;23.07;100.00;101301.97;10340444;28;20102;-76
2022/08/19 17:50:36;;;;;;;19.00;12.30;;;;;;;22.93;100.00;101299.28;10325346;28;20044;-76
2022/08/19 17:55:37;;;;;;;15.35;11.27;;;;;;;22.78;100.00;101302.56;10356498;28;20038;-75
2022/08/19 18:00:37;;;;;;;18.27;10.82;;;;;;;22.68;100.00;101317.72;10335916;28;20062;-75
2022/08/19 18:05:41;;;;;;;19.50;12.27;;;;;;;22.42;100.00;101314.00;10384594;28;20034;-73
2022/08/19 18:10:41;;;;;;;21.30;15.63;;;;;;;22.18;100.00;101309.59;10371097;28;20094;-75
2022/08/19 18:15:41;;;;;;;17.70;12.55;;;;;;;22.00;100.00;101313.47;10370272;28;20108;-76
2022/08/19 18:20:43;;;;;;;23.95;14.35;;;;;;;21.96;100.00;101328.09;10403661;28;20040;-74
2022/08/19 18:25:43;;;;;;;18.50;13.93;;;;;;;21.81;100.00;101311.69;10370640;28;20046;-76
2022/08/19 18:30:44;;;;;;;16.63;13.82;;;;;;;21.81;100.00;101328.50;10342250;28;20034;-75
2022/08/19 18:35:45;;;;;;;16.23;12.80;;;;;;;21.60;100.00;101310.53;10340825;28;20049;-76
2022/08/19 18:51:28;;;;;;;22.35;13.10;;;;;;;21.62;100.00;101353.06;10399624;28;20049;-75
2022/08/19 18:56:31;;;;;;;29.33;16.73;;;;;;;20.98;100.00;101361.50;10372322;28;20030;-74
2022/08/19 19:01:36;;;;;;;32.70;17.95;;;;;;;20.42;100.00;101366.25;10401999;28;20053;-73
2022/08/19 19:06:39;;;;;;;38.28;21.10;;;;;;;20.09;100.00;101377.47;10372515;28;20409;-72
2022/08/19 19:11:42;;;;;;;36.85;22.17;;;;;;;20.02;100.00;101379.84;10359336;28;20065;-73
2022/08/19 19:16:44;;;;;;;48.97;25.13;;;;;;;19.89;100.00;101365.53;10310186;28;20068;-73
2022/08/19 19:21:47;;;;;;;44.88;25.63;;;;;;;19.89;100.00;101390.69;10348031;28;20121;-73
2022/08/19 19:26:48;;;;;;;42.75;25.00;;;;;;;19.86;100.00;101396.88;10406171;28;20033;-73
2022/08/19 19:31:52;;;;;;;41.08;26.60;;;;;;;19.80;100.00;101395.28;10375633;28;20115;-74
2022/08/19 19:36:53;;;;;;;46.75;26.33;;;;;;;19.87;100.00;101406.91;10353624;28;20031;-73
2022/08/19 19:41:53;;;;;;;44.78;24.00;;;;;;;19.74;100.00;101407.69;10338849;28;20046;-73
2022/08/19 19:46:56;;;;;;;38.90;21.95;;;;;;;19.72;100.00;101421.13;10305854;28;20053;-72
2022/08/19 19:51:57;;;;;;;39.65;22.10;;;;;;;19.62;100.00;101424.06;10298721;28;20125;-73
2022/08/19 19:56:57;;;;;;;34.78;22.60;;;;;;;19.52;100.00;101423.06;10339126;28;20050;-73
2022/08/19 20:01:59;;;;;;;32.45;20.45;;;;;;;19.52;100.00;101439.81;10305633;28;20098;-73
2022/08/19 20:07:00;;;;;;;24.17;17.50;;;;;;;19.39;100.00;101435.00;10327686;28;20040;-74
2022/08/19 20:12:00;;;;;;;25.40;17.80;;;;;;;19.41;100.00;101435.53;10309867;28;20035;-74
2022/08/19 20:17:01;;;;;;;29.05;18.73;;;;;;;19.30;100.00;101425.63;10342997;28;20072;-74
2022/08/19 20:22:03;;;;;;;31.67;19.48;;;;;;;19.34;100.00;101443.44;10375909;28;20061;-74
2022/08/19 20:27:04;;;;;;;30.02;20.48;;;;;;;19.25;100.00;101434.06;10343276;28;20040;-75
2022/08/19 20:32:04;;;;;;;30.95;19.67;;;;;;;19.35;100.00;101425.56;10343846;28;20084;-73
2022/08/19 20:37:07;;;;;;;34.17;21.88;;;;;;;19.38;100.00;101441.69;10375157;28;20033;-73
2022/08/19 20:42:08;;;;;;;38.53;22.88;;;;;;;19.26;100.00;101444.09;10355263;28;20046;-72
2022/08/19 20:47:08;;;;;;;37.88;22.15;;;;;;;19.14;100.00;101434.19;10355598;28;20042;-73
2022/08/19 20:52:09;;;;;;;37.13;23.15;;;;;;;19.15;100.00;101444.22;10345171;28;20077;-73
2022/08/19 20:57:10;;;;;;;41.90;25.45;;;;;;;19.24;100.00;101454.72;10388493;28;20061;-72
2022/08/19 21:02:10;;;;;;;41.67;26.20;;;;;;;19.17;100.00;101452.31;10413541;28;20048;-73
2022/08/19 21:07:11;;;;;;;35.92;24.88;;;;;;;18.79;100.00;101396.41;10396504;28;20033;-73
2022/08/19 21:12:11;;;;;;;37.22;25.25;;;;;;;19.18;100.00;101461.50;10382369;28;20089;-73
2022/08/19 21:17:12;;;;;;;40.20;26.25;;;;;;;19.16;100.00;101450.63;10359658;28;20061;-73
2022/08/19 21:22:12;;;;;;;36.30;24.05;;;;;;;19.10;100.00;101443.44;10374503;28;20065;-73
2022/08/19 21:27:13;;;;;;;42.65;25.80;;;;;;;19.11;100.00;101434.78;10384406;28;20040;-73
2022/08/19 21:32:13;;;;;;;45.83;27.95;;;;;;;19.15;100.00;101454.56;10414559;28;20033;-74
2022/08/19 21:37:14;;;;;;;42.92;26.83;;;;;;;19.08;100.00;101440.97;10398407;28;20987;-74
2022/08/19 21:42:14;;;;;;;51.10;28.42;;;;;;;19.07;100.00;101444.88;10413695;28;20501;-73
2022/08/19 21:47:15;;;;;;;49.80;30.00;;;;;;;18.92;100.00;101437.53;10396244;28;20040;-74
2022/08/19 21:52:25;;;;;;;50.05;27.85;;;;;;;18.91;100.00;101441.47;10396314;28;20056;-74
2022/08/19 21:57:25;;;;;;;60.15;31.90;;;;;;;18.92;100.00;101447.88;10387156;28;20494;-74
2022/08/19 22:02:27;;;;;;;57.65;32.70;;;;;;;18.85;100.00;101458.53;10410627;28;20030;-73
2022/08/19 22:07:27;;;;;;;56.70;33.53;;;;;;;18.71;100.00;101442.47;10430177;28;20052;-74
2022/08/19 22:12:30;;;;;;;62.38;34.00;;;;;;;18.72;100.00;101448.88;10412819;28;20033;-74
2022/08/19 22:17:31;;;;;;;64.20;35.42;;;;;;;18.85;100.00;101469.69;10379505;28;20034;-74
2022/08/19 22:22:32;;;;;;;59.80;33.70;;;;;;;18.79;100.00;101462.50;10383365;28;20038;-74
2022/08/19 22:27:33;;;;;;;65.43;32.53;;;;;;;18.82;100.00;101456.34;10390045;28;20034;-74
2022/08/19 22:32:33;;;;;;;62.22;31.63;;;;;;;18.74;100.00;101446.63;10384642;28;20034;-74
2022/08/19 22:37:34;;;;;;;65.07;32.88;;;;;;;18.75;100.00;101457.50;10356973;28;20044;-74
2022/08/19 22:42:35;;;;;;;59.88;32.53;;;;;;;18.72;100.00;101460.88;10348875;28;20057;-74
2022/08/19 22:47:36;;;;;;;52.30;30.25;;;;;;;18.73;100.00;101459.75;10352256;28;20037;-75
2022/08/19 22:52:36;;;;;;;51.10;27.77;;;;;;;18.64;100.00;101449.53;10319348;28;20057;-71
2022/08/19 22:57:37;;;;;;;52.78;28.15;;;;;;;18.66;100.00;101476.00;10368361;28;20035;-74
2022/08/19 23:02:38;;;;;;;47.53;26.88;;;;;;;18.59;100.00;101472.72;10355692;28;20057;-75
2022/08/19 23:07:38;;;;;;;50.63;24.98;;;;;;;18.51;100.00;101463.03;10322964;28;20156;-74
2022/08/19 23:12:41;;;;;;;43.95;25.60;;;;;;;18.51;100.00;101481.72;10338867;28;20317;-74